createdAt,value
2023-05-16T00:00:48.338Z,34.60
2023-05-16T00:03:15.506Z,34.40
2023-05-16T00:05:42.470Z,34.50
2023-05-16T00:08:09.577Z,34.30
2023-05-16T00:10:36.930Z,34.10
2023-05-16T00:13:04.065Z,33.50
2023-05-16T00:15:31.204Z,34.40
2023-05-16T00:17:59.433Z,34.70
2023-05-16T00:20:28.285Z,35.30
2023-05-16T00:22:56.281Z,34.80
2023-05-16T00:25:23.660Z,35.40
2023-05-16T00:27:50.701Z,35.20
2023-05-16T00:30:17.826Z,35.10
2023-05-16T00:32:45.007Z,33.90
2023-05-16T00:35:12.558Z,34.50
2023-05-16T00:37:40.242Z,34.00
2023-05-16T00:40:07.904Z,33.90
2023-05-16T00:42:34.841Z,34.90
2023-05-16T00:45:01.774Z,35.40
2023-05-16T00:47:28.938Z,35.60
2023-05-16T00:49:56.768Z,36.00
2023-05-16T00:52:24.387Z,36.10
2023-05-16T00:54:52.163Z,35.90
2023-05-16T00:57:19.640Z,35.40
2023-05-16T00:59:50.070Z,35.30
2023-05-16T01:02:17.261Z,34.90
2023-05-16T01:04:44.778Z,35.30
2023-05-16T01:07:12.193Z,35.50
2023-05-16T01:09:39.545Z,35.60
2023-05-16T01:12:23.647Z,35.30
2023-05-16T01:15:03.085Z,35.40
2023-05-16T01:17:47.957Z,35.40
2023-05-16T01:20:21.222Z,35.10
2023-05-16T01:23:05.049Z,35.10
2023-05-16T01:25:48.336Z,35.00
2023-05-16T01:28:18.169Z,34.40
2023-05-16T01:30:45.247Z,34.90
2023-05-16T01:33:12.634Z,35.60
2023-05-16T01:36:08.732Z,35.40
2023-05-16T01:39:07.422Z,34.60
2023-05-16T01:41:48.190Z,34.40
2023-05-16T01:44:27.859Z,33.80
2023-05-16T01:46:59.746Z,34.30
2023-05-16T01:49:56.248Z,34.80
2023-05-16T01:52:48.735Z,35.20
2023-05-16T01:55:25.303Z,35.20
2023-05-16T01:57:53.379Z,35.20
2023-05-16T02:00:21.321Z,35.30
2023-05-16T02:02:48.331Z,35.70
2023-05-16T02:05:15.356Z,35.50
2023-05-16T02:07:42.788Z,35.20
2023-05-16T02:10:10.421Z,34.20
2023-05-16T02:12:37.511Z,34.50
2023-05-16T02:15:04.736Z,34.80
2023-05-16T02:17:32.186Z,35.10
2023-05-16T02:19:59.821Z,35.30
2023-05-16T02:22:26.768Z,35.00
2023-05-16T02:24:54.071Z,34.40
2023-05-16T02:27:21.163Z,33.70
2023-05-16T02:29:48.442Z,33.00
2023-05-16T02:32:15.470Z,33.50
2023-05-16T02:34:43.152Z,32.80
2023-05-16T02:37:12.475Z,32.90
2023-05-16T02:39:40.527Z,33.10
2023-05-16T02:42:07.863Z,33.00
2023-05-16T02:44:34.780Z,33.60
2023-05-16T02:47:01.820Z,33.70
2023-05-16T02:49:28.769Z,33.10
2023-05-16T02:51:55.732Z,32.10
2023-05-16T02:54:22.693Z,31.70
2023-05-16T02:56:49.912Z,32.30
2023-05-16T02:59:16.840Z,32.90
2023-05-16T03:01:43.994Z,33.60
2023-05-16T03:04:11.245Z,33.50
2023-05-16T03:06:38.350Z,33.60
2023-05-16T03:09:05.583Z,34.10
2023-05-16T03:11:32.499Z,34.00
2023-05-16T03:14:01.787Z,33.50
2023-05-16T03:16:30.710Z,33.70
2023-05-16T03:18:57.884Z,33.40
2023-05-16T03:21:25.071Z,33.80
2023-05-16T03:23:52.059Z,33.30
2023-05-16T03:26:19.067Z,33.50
2023-05-16T03:28:46.072Z,34.40
2023-05-16T03:31:13.162Z,34.50
2023-05-16T03:33:40.312Z,34.80
2023-05-16T03:36:07.736Z,34.80
2023-05-16T03:38:35.069Z,34.80
2023-05-16T03:41:02.251Z,35.00
2023-05-16T03:43:29.422Z,35.00
2023-05-16T03:45:56.407Z,34.90
2023-05-16T03:48:23.427Z,34.50
2023-05-16T03:50:51.474Z,34.20
2023-05-16T03:53:18.490Z,33.30
2023-05-16T03:55:48.110Z,33.50
2023-05-16T03:58:16.588Z,34.40
2023-05-16T04:00:43.579Z,35.20
2023-05-16T04:03:11.470Z,34.80
2023-05-16T04:05:38.451Z,35.10
2023-05-16T04:08:05.964Z,35.10
2023-05-16T04:10:32.933Z,35.50
2023-05-16T04:12:59.951Z,35.40
2023-05-16T04:15:27.153Z,35.40
2023-05-16T04:17:54.479Z,35.40
2023-05-16T04:20:21.439Z,35.00
2023-05-16T04:22:48.706Z,34.40
2023-05-16T04:25:15.899Z,34.10
2023-05-16T04:27:43.027Z,34.40
2023-05-16T04:30:12.032Z,34.50
2023-05-16T04:32:39.340Z,33.90
2023-05-16T04:35:09.335Z,34.20
2023-05-16T04:37:36.945Z,33.90
2023-05-16T04:40:04.202Z,33.00
2023-05-16T04:42:32.728Z,33.10
2023-05-16T04:44:59.822Z,33.10
2023-05-16T04:47:28.064Z,33.30
2023-05-16T04:49:55.025Z,32.80
2023-05-16T04:52:21.937Z,33.20
2023-05-16T04:54:52.571Z,33.30
2023-05-16T04:57:19.624Z,34.10
2023-05-16T04:59:46.568Z,34.40
2023-05-16T05:02:13.602Z,34.30
2023-05-16T05:04:40.706Z,34.20
2023-05-16T05:07:08.279Z,34.40
2023-05-16T05:09:35.282Z,34.80
2023-05-16T05:12:02.490Z,34.90
2023-05-16T05:14:29.525Z,34.80
2023-05-16T05:16:56.615Z,35.30
2023-05-16T05:19:23.701Z,34.70
2023-05-16T05:21:51.078Z,34.50
2023-05-16T05:24:18.052Z,34.40
2023-05-16T05:26:44.970Z,34.40
2023-05-16T05:29:11.961Z,34.60
2023-05-16T05:31:38.997Z,35.00
2023-05-16T05:34:06.183Z,35.10
2023-05-16T05:36:33.120Z,35.20
2023-05-16T05:39:00.215Z,34.90
2023-05-16T05:41:27.325Z,34.80
2023-05-16T05:43:54.332Z,34.80
2023-05-16T05:46:21.538Z,34.70
2023-05-16T05:48:48.703Z,34.10
2023-05-16T05:51:15.833Z,34.50
2023-05-16T05:53:42.982Z,34.30
2023-05-16T05:56:10.029Z,34.60
2023-05-16T05:58:37.054Z,34.50
2023-05-16T06:01:04.278Z,34.40
2023-05-16T06:03:31.874Z,34.50
2023-05-16T06:05:59.036Z,34.50
2023-05-16T06:08:26.188Z,34.80
2023-05-16T06:10:53.279Z,35.10
2023-05-16T06:13:20.259Z,35.40
2023-05-16T06:15:54.305Z,35.50
2023-05-16T06:18:21.800Z,35.40
2023-05-16T06:20:48.781Z,34.90
2023-05-16T06:23:16.237Z,34.70
2023-05-16T06:25:43.203Z,35.70
2023-05-16T06:28:10.174Z,35.20
2023-05-16T06:30:37.138Z,35.40
2023-05-16T06:33:04.458Z,35.30
2023-05-16T06:35:31.413Z,35.40
2023-05-16T06:37:58.495Z,35.50
2023-05-16T06:40:25.556Z,36.00
2023-05-16T06:42:52.523Z,36.40
2023-05-16T06:45:19.757Z,36.70
2023-05-16T06:47:46.838Z,36.60
2023-05-16T06:50:14.060Z,36.70
2023-05-16T06:52:41.988Z,36.00
2023-05-16T06:55:09.667Z,36.00
2023-05-16T06:57:36.751Z,35.40
2023-05-16T07:00:04.183Z,35.30
2023-05-16T07:02:31.377Z,34.70
2023-05-16T07:04:58.451Z,34.10
2023-05-16T07:07:25.532Z,34.30
2023-05-16T07:09:52.680Z,33.80
2023-05-16T07:12:22.164Z,33.50
2023-05-16T07:14:49.129Z,33.50
2023-05-16T07:17:17.110Z,33.50
2023-05-16T07:19:44.173Z,33.90
2023-05-16T07:22:12.323Z,34.80
2023-05-16T07:24:39.412Z,34.80
2023-05-16T07:27:06.882Z,34.80
2023-05-16T07:29:33.956Z,35.00
2023-05-16T07:32:01.168Z,34.40
2023-05-16T07:34:28.278Z,34.40
2023-05-16T07:36:55.264Z,34.30
2023-05-16T07:39:22.296Z,33.90
2023-05-16T07:41:49.267Z,34.00
2023-05-16T07:44:16.437Z,34.20
2023-05-16T07:46:45.332Z,34.10
2023-05-16T07:49:12.494Z,33.90
2023-05-16T07:51:39.475Z,33.80
2023-05-16T07:54:06.782Z,34.70
2023-05-16T07:56:33.992Z,33.50
2023-05-16T07:59:01.299Z,33.30
2023-05-16T08:01:28.424Z,32.60
2023-05-16T08:03:55.493Z,32.60
2023-05-16T08:06:22.520Z,31.90
2023-05-16T08:08:49.583Z,32.50
2023-05-16T08:11:19.443Z,33.00
2023-05-16T08:13:46.467Z,31.70
2023-05-16T08:16:13.538Z,31.00
2023-05-16T08:18:40.983Z,31.40
2023-05-16T08:21:09.222Z,32.40
2023-05-16T08:23:36.752Z,32.60
2023-05-16T08:26:03.910Z,32.40
2023-05-16T08:28:31.318Z,32.20
2023-05-16T08:30:58.570Z,32.30
2023-05-16T08:33:25.917Z,31.80
2023-05-16T08:35:53.118Z,31.40
2023-05-16T08:38:20.815Z,32.00
2023-05-16T08:40:48.072Z,31.80
2023-05-16T08:43:15.460Z,32.50
2023-05-16T08:45:42.848Z,31.90
2023-05-16T08:48:12.232Z,31.60
2023-05-16T08:50:39.766Z,31.70
2023-05-16T08:53:09.220Z,32.60
2023-05-16T08:55:37.987Z,32.80
2023-05-16T08:58:04.994Z,32.40
2023-05-16T09:00:32.638Z,32.70
2023-05-16T09:03:00.363Z,32.90
2023-05-16T09:05:29.889Z,33.30
2023-05-16T09:07:57.155Z,32.60
2023-05-16T09:10:24.569Z,32.20
2023-05-16T09:12:51.828Z,32.10
2023-05-16T09:15:21.423Z,32.10
2023-05-16T09:17:49.418Z,31.40
2023-05-16T09:20:18.971Z,31.10
2023-05-16T09:22:57.444Z,32.90
2023-05-16T09:28:02.877Z,33.40
2023-05-16T09:30:35.039Z,33.40
2023-05-16T09:33:03.089Z,34.10
2023-05-16T09:35:43.787Z,34.30
2023-05-16T09:38:18.455Z,32.90
2023-05-16T09:40:46.345Z,32.40
2023-05-16T09:43:16.908Z,31.80
2023-05-16T09:45:48.364Z,32.50
2023-05-16T09:48:17.389Z,33.00
2023-05-16T09:50:54.796Z,33.00
2023-05-16T09:53:29.454Z,33.40
2023-05-16T09:56:13.864Z,34.10
2023-05-16T09:58:42.986Z,33.30
2023-05-16T10:01:11.137Z,33.00
2023-05-16T10:03:40.597Z,33.10
2023-05-16T10:06:09.110Z,32.10
2023-05-16T10:08:37.221Z,31.30
2023-05-16T10:11:06.014Z,31.40
2023-05-16T10:13:36.053Z,32.10
2023-05-16T10:16:10.252Z,32.80
2023-05-16T10:18:40.309Z,33.30
2023-05-16T10:21:13.695Z,32.70
2023-05-16T10:23:46.668Z,33.20
2023-05-16T10:26:16.345Z,33.60
2023-05-16T10:28:43.773Z,33.30
2023-05-16T10:31:11.974Z,33.20
2023-05-16T10:33:41.048Z,32.50
2023-05-16T10:36:12.141Z,32.00
2023-05-16T10:38:40.279Z,32.40
2023-05-16T10:41:08.567Z,32.80
2023-05-16T10:43:36.925Z,33.60
2023-05-16T10:46:07.779Z,33.20
2023-05-16T10:48:39.882Z,33.90
2023-05-16T10:51:32.952Z,34.00
2023-05-16T10:54:09.744Z,34.20
2023-05-16T10:56:37.504Z,33.90
2023-05-16T10:59:07.463Z,34.10
2023-05-16T11:01:35.689Z,32.90
2023-05-16T11:04:11.379Z,32.00
2023-05-16T11:06:41.430Z,31.50
2023-05-16T11:09:23.448Z,31.90
2023-05-16T11:12:00.347Z,31.80
2023-05-16T11:14:39.072Z,32.10
2023-05-16T11:17:20.959Z,32.40
2023-05-16T11:19:55.272Z,32.40
2023-05-16T11:22:27.440Z,33.10
2023-05-16T11:25:05.857Z,33.80
2023-05-16T11:27:43.493Z,34.00
2023-05-16T11:30:10.641Z,34.30
2023-05-16T11:32:41.565Z,34.30
2023-05-16T11:35:14.316Z,34.20
2023-05-16T11:37:42.982Z,34.00
2023-05-16T11:40:12.397Z,33.20
2023-05-16T11:42:44.965Z,32.40
2023-05-16T11:45:16.097Z,33.50
2023-05-16T11:47:44.764Z,33.90
2023-05-16T11:50:14.214Z,33.50
2023-05-16T11:52:44.930Z,32.70
2023-05-16T11:55:28.414Z,33.00
2023-05-16T11:58:01.606Z,32.80
2023-05-16T12:00:28.887Z,34.20
2023-05-16T12:03:03.471Z,34.20
2023-05-16T12:05:32.248Z,34.70
2023-05-16T12:08:00.253Z,33.50
2023-05-16T12:10:27.589Z,33.50
2023-05-16T12:12:55.426Z,33.70
2023-05-16T12:15:23.038Z,33.40
2023-05-16T12:17:50.988Z,32.30
2023-05-16T12:20:18.989Z,32.70
2023-05-16T12:22:46.770Z,33.10
2023-05-16T12:25:32.087Z,32.40
2023-05-16T12:28:01.658Z,32.40
2023-05-16T12:30:30.769Z,32.70
2023-05-16T12:33:05.858Z,32.90
2023-05-16T12:35:37.860Z,33.30
2023-05-16T12:38:06.129Z,34.40
2023-05-16T12:40:33.290Z,34.60
2023-05-16T12:43:00.539Z,34.90
2023-05-16T12:45:32.328Z,35.20
2023-05-16T12:48:13.177Z,35.20
2023-05-16T12:50:41.966Z,35.10
2023-05-16T12:53:14.127Z,35.30
2023-05-16T12:55:41.863Z,34.90
2023-05-16T12:58:10.129Z,34.90
2023-05-16T13:00:37.867Z,34.90
2023-05-16T13:03:06.544Z,33.70
2023-05-16T13:05:34.751Z,33.60
2023-05-16T13:08:02.682Z,33.60
2023-05-16T13:10:30.181Z,33.30
2023-05-16T13:13:00.054Z,34.10
2023-05-16T13:15:28.087Z,35.10
2023-05-16T13:17:55.966Z,35.90
2023-05-16T13:20:23.066Z,34.40
2023-05-16T13:22:50.206Z,34.30
2023-05-16T13:25:17.226Z,34.60
2023-05-16T13:27:44.257Z,34.80
2023-05-16T13:30:11.824Z,33.80
2023-05-16T13:32:39.191Z,33.80
2023-05-16T13:35:09.320Z,33.40
2023-05-16T13:37:37.753Z,34.00
2023-05-16T13:40:05.343Z,34.40
2023-05-16T13:42:32.486Z,33.40
2023-05-16T13:44:59.522Z,34.00
2023-05-16T13:47:27.895Z,33.80
2023-05-16T13:49:55.271Z,33.80
2023-05-16T13:52:22.365Z,33.40
2023-05-16T13:54:49.551Z,33.80
2023-05-16T13:57:16.767Z,33.90
2023-05-16T14:02:26.270Z,34.30
2023-05-16T14:04:54.133Z,33.90
2023-05-16T14:07:21.249Z,34.80
2023-05-16T14:09:48.334Z,34.70
2023-05-16T14:12:15.482Z,34.60
2023-05-16T14:14:42.626Z,33.60
2023-05-16T14:17:09.914Z,33.50
2023-05-16T14:19:37.408Z,32.90
2023-05-16T14:22:05.928Z,32.40
2023-05-16T14:24:33.938Z,32.20
2023-05-16T14:27:00.919Z,32.30
2023-05-16T14:29:28.526Z,32.80
2023-05-16T14:31:56.457Z,32.30
2023-05-16T14:34:23.980Z,32.60
2023-05-16T14:36:51.164Z,32.20
2023-05-16T14:39:18.658Z,31.90
2023-05-16T14:41:45.735Z,32.70
2023-05-16T14:44:12.955Z,33.70
2023-05-16T14:46:40.264Z,34.00
2023-05-16T14:49:07.414Z,34.00
2023-05-16T14:51:34.447Z,34.90
2023-05-16T14:54:01.670Z,34.90
2023-05-16T14:56:28.685Z,34.40
2023-05-16T14:58:55.696Z,34.10
2023-05-16T15:01:22.919Z,34.30
2023-05-16T15:03:55.830Z,34.40
2023-05-16T15:06:24.365Z,33.80
2023-05-16T15:08:51.603Z,34.90
2023-05-16T15:11:18.646Z,35.20
2023-05-16T15:13:46.498Z,35.30
2023-05-16T15:16:13.698Z,35.40
2023-05-16T15:18:41.991Z,35.00
2023-05-16T15:21:09.293Z,35.20
2023-05-16T15:23:36.823Z,34.80
2023-05-16T15:26:04.555Z,34.00
2023-05-16T15:28:31.596Z,34.30
2023-05-16T15:30:58.606Z,35.30
2023-05-16T15:33:26.555Z,35.70
2023-05-16T15:35:53.713Z,35.70
2023-05-16T15:38:20.814Z,36.30
2023-05-16T15:40:50.795Z,35.90
2023-05-16T15:43:25.045Z,36.50
2023-05-16T15:45:52.780Z,36.20
2023-05-16T15:48:19.951Z,36.10
2023-05-16T15:50:47.019Z,35.40
2023-05-16T15:53:14.063Z,35.40
2023-05-16T15:55:41.254Z,35.90
2023-05-16T15:58:08.282Z,36.90
2023-05-16T16:00:35.311Z,37.30
2023-05-16T16:03:02.357Z,37.90
2023-05-16T16:05:29.878Z,37.50
2023-05-16T16:07:57.045Z,36.50
2023-05-16T16:10:24.132Z,36.20
2023-05-16T16:13:01.832Z,36.70
2023-05-16T16:15:32.838Z,37.30
2023-05-16T16:18:00.961Z,38.00
2023-05-16T16:20:28.479Z,38.10
2023-05-16T16:22:55.647Z,37.70
2023-05-16T16:25:22.884Z,37.10
2023-05-16T16:27:50.008Z,37.50
2023-05-16T16:30:17.377Z,37.50
2023-05-16T16:32:44.781Z,37.50
2023-05-16T16:35:12.064Z,37.80
2023-05-16T16:37:39.260Z,38.40
2023-05-16T16:40:09.226Z,38.50
2023-05-16T16:42:38.101Z,38.60
2023-05-16T16:45:06.155Z,38.80
2023-05-16T16:47:33.963Z,39.00
2023-05-16T16:50:01.520Z,39.20
2023-05-16T16:52:29.042Z,39.60
2023-05-16T16:54:56.359Z,39.70
2023-05-16T16:57:23.458Z,39.50
2023-05-16T16:59:50.969Z,39.50
2023-05-16T17:02:18.249Z,39.20
2023-05-16T17:04:45.452Z,38.60
2023-05-16T17:07:13.127Z,37.70
2023-05-16T17:09:42.390Z,36.80
2023-05-16T17:12:19.544Z,37.30
2023-05-16T17:14:48.088Z,37.30
2023-05-16T17:17:16.209Z,37.00
2023-05-16T17:19:45.081Z,36.50
2023-05-16T17:22:12.629Z,36.60
2023-05-16T17:24:39.721Z,37.00
2023-05-16T17:27:06.797Z,35.60
2023-05-16T17:29:33.863Z,35.60
2023-05-16T17:32:01.143Z,35.60
2023-05-16T17:34:28.173Z,35.20
2023-05-16T17:36:55.221Z,35.80
2023-05-16T17:39:22.713Z,35.50
2023-05-16T17:41:49.777Z,36.10
2023-05-16T17:44:16.852Z,36.70
2023-05-16T17:46:44.513Z,37.20
2023-05-16T17:49:12.007Z,37.60
2023-05-16T17:51:49.195Z,37.60
2023-05-16T17:54:18.607Z,37.20
2023-05-16T17:56:46.775Z,37.20
2023-05-16T17:59:15.134Z,37.50
2023-05-16T18:01:43.596Z,36.90
2023-05-16T18:04:10.945Z,37.20
2023-05-16T18:06:39.012Z,37.40
2023-05-16T18:09:09.756Z,37.20
2023-05-16T18:11:38.993Z,36.90
2023-05-16T18:14:06.584Z,36.60
2023-05-16T18:16:33.639Z,36.90
2023-05-16T18:19:00.883Z,36.30
2023-05-16T18:21:28.169Z,35.60
2023-05-16T18:23:59.123Z,36.00
2023-05-16T18:26:27.589Z,36.20
2023-05-16T18:28:54.751Z,36.10
2023-05-16T18:31:22.336Z,36.40
2023-05-16T18:33:50.006Z,36.30
2023-05-16T18:36:17.071Z,36.50
2023-05-16T18:38:44.395Z,36.30
2023-05-16T18:41:11.427Z,36.50
2023-05-16T18:43:38.611Z,37.30
2023-05-16T18:46:05.744Z,37.60
2023-05-16T18:48:35.341Z,37.60
2023-05-16T18:51:03.202Z,37.70
2023-05-16T18:53:30.468Z,37.60
2023-05-16T18:55:57.446Z,37.80
2023-05-16T18:58:24.498Z,37.90
2023-05-16T19:00:51.824Z,37.90
2023-05-16T19:03:19.337Z,37.80
2023-05-16T19:05:46.618Z,37.70
2023-05-16T19:08:13.811Z,37.70
2023-05-16T19:10:41.853Z,37.70
2023-05-16T19:13:09.137Z,37.40
2023-05-16T19:15:39.342Z,37.60
2023-05-16T19:18:06.730Z,37.60
2023-05-16T19:20:34.908Z,37.50
2023-05-16T19:23:03.678Z,37.40
2023-05-16T19:25:30.825Z,37.30
2023-05-16T19:27:58.431Z,37.00
2023-05-16T19:30:25.956Z,37.00
2023-05-16T19:32:53.422Z,37.00
2023-05-16T19:35:20.791Z,37.00
2023-05-16T19:37:47.940Z,37.00
2023-05-16T19:40:17.241Z,37.00
2023-05-16T19:42:44.665Z,36.70
2023-05-16T19:45:12.141Z,36.50
2023-05-16T19:47:39.407Z,36.10
2023-05-16T19:50:07.129Z,35.50
2023-05-16T19:52:34.444Z,35.30
2023-05-16T19:55:01.855Z,35.40
2023-05-16T19:57:29.084Z,35.00
2023-05-16T19:59:56.127Z,35.20
2023-05-16T20:02:24.523Z,35.00
2023-05-16T20:04:52.339Z,35.10
2023-05-16T20:07:19.702Z,35.20
2023-05-16T20:09:46.869Z,35.60
2023-05-16T20:12:14.316Z,35.50
2023-05-16T20:14:42.182Z,35.50
2023-05-16T20:17:09.431Z,34.40
2023-05-16T20:19:37.628Z,33.40
2023-05-16T20:22:04.918Z,32.50
2023-05-16T20:24:32.082Z,31.70
2023-05-16T20:26:59.249Z,31.20
2023-05-16T20:29:26.496Z,30.60
2023-05-16T20:31:53.695Z,30.20
2023-05-16T20:34:21.091Z,30.90
2023-05-16T20:36:48.284Z,31.60
2023-05-16T20:39:15.529Z,32.20
2023-05-16T20:41:42.529Z,32.90
2023-05-16T20:44:09.596Z,32.80
2023-05-16T20:46:37.188Z,32.90
2023-05-16T20:49:04.362Z,33.20
2023-05-16T20:51:32.052Z,33.30
2023-05-16T20:53:59.224Z,33.80
2023-05-16T20:56:26.433Z,34.00
2023-05-16T20:58:53.519Z,34.40
2023-05-16T21:01:20.627Z,34.40
2023-05-16T21:03:47.687Z,34.60
2023-05-16T21:06:14.774Z,34.70
2023-05-16T21:08:41.844Z,34.90
2023-05-16T21:11:08.850Z,34.80
2023-05-16T21:13:35.921Z,34.50
2023-05-16T21:16:03.118Z,34.20
2023-05-16T21:18:30.176Z,34.10
2023-05-16T21:20:57.271Z,33.30
2023-05-16T21:23:24.363Z,32.30
2023-05-16T21:25:51.624Z,31.90
2023-05-16T21:28:18.716Z,32.00
2023-05-16T21:30:45.764Z,32.10
2023-05-16T21:33:13.182Z,32.40
2023-05-16T21:35:40.179Z,32.00
2023-05-16T21:38:07.161Z,31.70
2023-05-16T21:40:34.266Z,31.60
2023-05-16T21:43:01.234Z,31.60
2023-05-16T21:45:29.713Z,31.60
2023-05-16T21:47:56.997Z,31.50
2023-05-16T21:50:24.170Z,31.30
2023-05-16T21:52:51.215Z,31.70
2023-05-16T21:55:18.366Z,31.50
2023-05-16T21:57:45.378Z,31.60
2023-05-16T22:00:13.017Z,31.50
2023-05-16T22:02:40.097Z,31.90
2023-05-16T22:05:07.713Z,31.70
2023-05-16T22:07:34.941Z,31.80
2023-05-16T22:10:02.702Z,31.60
2023-05-16T22:12:29.710Z,31.10
2023-05-16T22:14:56.964Z,30.70
2023-05-16T22:17:24.093Z,30.40
2023-05-16T22:19:51.142Z,30.70
2023-05-16T22:22:18.184Z,30.20
2023-05-16T22:24:45.186Z,30.50
2023-05-16T22:27:12.172Z,31.00
2023-05-16T22:29:39.323Z,30.80
2023-05-16T22:32:10.337Z,30.90
2023-05-16T22:34:40.855Z,31.30
2023-05-16T22:37:10.585Z,31.20
2023-05-16T22:39:40.679Z,31.30
2023-05-16T22:42:07.797Z,31.60
2023-05-16T22:44:34.870Z,31.60
2023-05-16T22:47:01.914Z,31.10
2023-05-16T22:49:28.979Z,31.10
2023-05-16T22:51:56.135Z,30.90
2023-05-16T22:54:23.168Z,30.90
2023-05-16T22:56:50.190Z,31.00
2023-05-16T22:59:17.430Z,31.10
2023-05-16T23:01:44.519Z,31.00
2023-05-16T23:04:11.600Z,31.10
2023-05-16T23:06:38.839Z,31.70
2023-05-16T23:09:05.916Z,32.00
2023-05-16T23:11:33.260Z,31.90
2023-05-16T23:14:00.333Z,31.90
2023-05-16T23:16:27.403Z,32.10
2023-05-16T23:18:54.582Z,32.30
2023-05-16T23:21:21.758Z,32.10
2023-05-16T23:23:48.779Z,31.60
2023-05-16T23:26:15.784Z,31.40
2023-05-16T23:28:42.818Z,31.10
2023-05-16T23:31:10.131Z,29.80
2023-05-16T23:33:37.204Z,29.30
2023-05-16T23:36:04.707Z,29.10
2023-05-16T23:38:31.705Z,29.40
2023-05-16T23:40:58.843Z,30.50
2023-05-16T23:43:25.879Z,31.30
2023-05-16T23:45:53.009Z,30.60
2023-05-16T23:48:20.043Z,29.80
2023-05-16T23:50:47.118Z,29.30
2023-05-16T23:53:14.236Z,29.20
2023-05-16T23:55:41.342Z,28.90
2023-05-16T23:58:08.385Z,29.30
